createdAt,value
2018-03-17T00:01:27.818Z,95.70
2018-03-17T00:03:55.986Z,95.60
2018-03-17T00:06:39.042Z,95.50
2018-03-17T00:09:07.203Z,95.20
2018-03-17T00:11:35.413Z,95.70
2018-03-17T00:14:04.388Z,95.50
2018-03-17T00:16:34.543Z,95.50
2018-03-17T00:19:02.743Z,95.00
2018-03-17T00:21:30.958Z,95.00
2018-03-17T00:23:59.162Z,95.10
2018-03-17T00:26:28.395Z,95.30
2018-03-17T00:28:56.592Z,95.10
2018-03-17T00:31:24.820Z,95.00
2018-03-17T00:33:53.070Z,94.30
2018-03-17T00:36:22.049Z,94.30
2018-03-17T00:38:51.019Z,94.60
2018-03-17T00:41:19.264Z,94.60
2018-03-17T00:43:48.174Z,94.40
2018-03-17T00:46:17.280Z,94.40
2018-03-17T00:48:45.462Z,93.90
2018-03-17T00:51:13.617Z,94.80
2018-03-17T00:53:41.787Z,94.50
2018-03-17T00:56:11.916Z,94.40
2018-03-17T00:58:40.082Z,94.10
2018-03-17T01:01:08.246Z,94.70
2018-03-17T01:03:36.414Z,95.00
2018-03-17T01:06:11.865Z,95.00
2018-03-17T01:08:40.031Z,94.20
2018-03-17T01:11:15.621Z,94.70
2018-03-17T01:13:43.793Z,94.90
2018-03-17T01:16:11.957Z,95.20
2018-03-17T01:18:40.118Z,94.90
2018-03-17T01:21:08.264Z,94.60
2018-03-17T01:23:36.426Z,94.70
2018-03-17T01:26:04.607Z,93.50
2018-03-17T01:28:32.767Z,94.30
2018-03-17T01:31:00.964Z,94.70
2018-03-17T01:33:29.131Z,93.80
2018-03-17T01:35:59.278Z,93.40
2018-03-17T01:38:27.463Z,94.00
2018-03-17T01:40:55.632Z,94.10
2018-03-17T01:43:23.769Z,93.70
2018-03-17T01:45:51.930Z,94.30
2018-03-17T01:48:20.083Z,94.00
2018-03-17T01:50:49.023Z,94.00
2018-03-17T01:53:17.196Z,94.00
2018-03-17T01:55:52.446Z,94.50
2018-03-17T01:58:20.610Z,94.40
2018-03-17T02:00:48.774Z,93.70
2018-03-17T02:03:16.917Z,93.50
2018-03-17T02:05:45.079Z,94.10
2018-03-17T02:08:14.135Z,93.70
2018-03-17T02:10:42.391Z,93.70
2018-03-17T02:13:10.599Z,93.60
2018-03-17T02:15:39.715Z,94.00
2018-03-17T02:18:08.710Z,93.80
2018-03-17T02:20:37.779Z,93.70
2018-03-17T02:23:06.035Z,93.70
2018-03-17T02:25:34.246Z,93.40
2018-03-17T02:28:02.478Z,93.30
2018-03-17T02:30:30.683Z,92.90
2018-03-17T02:32:58.893Z,93.40
2018-03-17T02:35:27.099Z,93.50
2018-03-17T02:38:06.993Z,93.30
2018-03-17T02:40:35.236Z,93.60
2018-03-17T02:43:03.460Z,93.60
2018-03-17T02:45:31.678Z,93.50
2018-03-17T02:47:59.932Z,93.40
2018-03-17T02:50:28.154Z,94.00
2018-03-17T02:52:56.404Z,93.60
2018-03-17T02:55:24.590Z,93.80
2018-03-17T02:57:53.760Z,93.90
2018-03-17T03:00:21.960Z,93.60
2018-03-17T03:02:50.156Z,93.90
2018-03-17T03:05:18.407Z,94.10
2018-03-17T03:07:59.366Z,93.40
2018-03-17T03:10:27.526Z,93.30
2018-03-17T03:12:55.663Z,93.60
2018-03-17T03:15:24.594Z,94.20
2018-03-17T03:17:56.069Z,94.00
2018-03-17T03:20:24.227Z,94.20
2018-03-17T03:22:52.374Z,94.00
2018-03-17T03:25:20.530Z,93.30
2018-03-17T03:27:49.454Z,93.30
2018-03-17T03:30:17.617Z,93.30
2018-03-17T03:32:45.759Z,93.00
2018-03-17T03:35:14.698Z,92.60
2018-03-17T03:37:42.839Z,92.60
2018-03-17T03:40:11.770Z,93.00
2018-03-17T03:42:39.934Z,93.00
2018-03-17T03:45:08.090Z,93.80
2018-03-17T03:47:37.203Z,93.60
2018-03-17T03:50:05.379Z,93.40
2018-03-17T03:52:33.523Z,93.60
2018-03-17T03:55:01.686Z,93.80
2018-03-17T03:57:31.555Z,93.90
2018-03-17T03:59:59.700Z,93.90
2018-03-17T04:02:28.634Z,93.60
2018-03-17T04:04:56.777Z,93.20
2018-03-17T04:07:25.894Z,94.20
2018-03-17T04:09:54.041Z,92.80
2018-03-17T04:12:22.201Z,93.70
2018-03-17T04:14:50.359Z,93.20
2018-03-17T04:17:18.535Z,93.30
2018-03-17T04:19:46.682Z,93.40
2018-03-17T04:22:14.854Z,92.60
2018-03-17T04:24:43.018Z,93.40
2018-03-17T04:27:11.181Z,93.40
2018-03-17T04:29:39.328Z,93.30
2018-03-17T04:32:07.500Z,93.00
2018-03-17T04:34:35.642Z,93.20
2018-03-17T04:37:15.845Z,92.50
2018-03-17T04:39:43.990Z,92.50
2018-03-17T04:42:12.149Z,92.40
2018-03-17T04:44:40.319Z,92.70
2018-03-17T04:47:09.233Z,92.80
2018-03-17T04:49:38.206Z,92.90
2018-03-17T04:52:06.407Z,92.90
2018-03-17T04:54:34.622Z,92.90
2018-03-17T04:57:04.803Z,92.30
2018-03-17T04:59:33.038Z,92.10
2018-03-17T05:02:02.024Z,92.70
2018-03-17T05:04:31.058Z,93.00
2018-03-17T05:06:59.266Z,93.00
2018-03-17T05:09:27.499Z,92.50
2018-03-17T05:11:55.710Z,92.20
2018-03-17T05:14:23.914Z,92.00
2018-03-17T05:16:57.020Z,92.10
2018-03-17T05:19:25.264Z,92.10
2018-03-17T05:21:53.502Z,91.80
2018-03-17T05:24:21.711Z,92.60
2018-03-17T05:26:57.111Z,92.50
2018-03-17T05:29:25.326Z,91.80
2018-03-17T05:31:53.445Z,92.20
2018-03-17T05:34:21.601Z,92.00
2018-03-17T05:36:54.514Z,91.30
2018-03-17T05:39:23.823Z,91.50
2018-03-17T05:41:51.961Z,91.80
2018-03-17T05:44:20.870Z,92.00
2018-03-17T05:46:58.186Z,92.00
2018-03-17T05:49:26.322Z,91.50
2018-03-17T05:51:54.486Z,90.90
2018-03-17T05:54:23.407Z,91.40
2018-03-17T05:56:55.598Z,91.40
2018-03-17T05:59:23.742Z,91.20
2018-03-17T06:01:51.898Z,91.50
2018-03-17T06:04:20.064Z,91.70
2018-03-17T06:06:53.402Z,91.30
2018-03-17T06:09:21.537Z,91.40
2018-03-17T06:11:49.714Z,91.10
2018-03-17T06:14:17.863Z,90.80
2018-03-17T06:16:47.739Z,90.90
2018-03-17T06:19:15.886Z,90.60
2018-03-17T06:21:44.047Z,90.60
2018-03-17T06:24:12.186Z,90.50
2018-03-17T06:26:42.273Z,90.20
2018-03-17T06:29:10.417Z,90.60
2018-03-17T06:31:38.577Z,90.00
2018-03-17T06:34:07.525Z,90.10
2018-03-17T06:36:35.680Z,90.10
2018-03-17T06:39:03.928Z,90.00
2018-03-17T06:41:32.119Z,89.50
2018-03-17T06:44:00.278Z,89.50
2018-03-17T06:46:28.482Z,89.50
2018-03-17T06:48:56.655Z,90.00
2018-03-17T06:51:24.844Z,89.90
2018-03-17T06:53:53.047Z,90.20
2018-03-17T06:56:22.011Z,87.90
2018-03-17T06:58:50.194Z,87.80
2018-03-17T07:01:18.368Z,86.80
2018-03-17T07:03:46.582Z,90.10
2018-03-17T07:06:17.971Z,89.20
2018-03-17T07:08:46.174Z,89.00
2018-03-17T07:11:15.271Z,89.20
2018-03-17T07:13:44.207Z,90.00
2018-03-17T07:16:12.346Z,89.40
2018-03-17T07:18:41.266Z,88.40
2018-03-17T07:21:09.405Z,88.40
2018-03-17T07:23:38.325Z,87.40
2018-03-17T07:26:07.430Z,87.40
2018-03-17T07:28:35.601Z,87.20
2018-03-17T07:31:03.738Z,87.10
2018-03-17T07:33:32.666Z,88.10
2018-03-17T07:36:02.819Z,88.10
2018-03-17T07:38:30.965Z,88.10
2018-03-17T07:40:59.124Z,87.20
2018-03-17T07:43:27.261Z,88.30
2018-03-17T07:45:59.910Z,89.10
2018-03-17T07:48:28.063Z,89.20
2018-03-17T07:50:56.993Z,86.90
2018-03-17T07:53:25.138Z,86.80
2018-03-17T07:55:54.242Z,87.60
2018-03-17T07:58:22.388Z,87.20
2018-03-17T08:00:50.561Z,86.00
2018-03-17T08:03:18.720Z,86.70
2018-03-17T08:05:46.883Z,86.30
2018-03-17T08:08:15.800Z,86.80
2018-03-17T08:10:43.962Z,86.80
2018-03-17T08:13:12.098Z,86.40
2018-03-17T08:15:42.189Z,86.00
2018-03-17T08:18:10.334Z,85.90
2018-03-17T08:20:38.510Z,85.60
2018-03-17T08:23:06.650Z,85.70
2018-03-17T08:25:35.559Z,84.40
2018-03-17T08:28:03.772Z,84.40
2018-03-17T08:30:33.049Z,83.20
2018-03-17T08:33:01.261Z,83.90
2018-03-17T08:35:29.369Z,83.90
2018-03-17T08:37:58.291Z,85.10
2018-03-17T08:40:26.434Z,85.00
2018-03-17T08:42:54.626Z,86.20
2018-03-17T08:45:22.766Z,84.30
2018-03-17T08:48:04.113Z,86.60
2018-03-17T08:50:32.947Z,86.50
2018-03-17T08:53:01.894Z,86.20
2018-03-17T08:55:30.057Z,86.20
2018-03-17T08:57:58.226Z,85.30
2018-03-17T09:00:26.379Z,85.10
2018-03-17T09:02:54.538Z,85.20
2018-03-17T09:05:22.687Z,84.00
2018-03-17T09:07:50.849Z,83.60
2018-03-17T09:10:18.997Z,83.90
2018-03-17T09:12:47.154Z,83.70
2018-03-17T09:15:15.294Z,83.70
2018-03-17T09:17:45.174Z,83.80
2018-03-17T09:20:13.311Z,83.70
2018-03-17T09:22:41.462Z,83.50
2018-03-17T09:25:09.629Z,84.80
2018-03-17T09:27:37.851Z,82.90
2018-03-17T09:30:06.014Z,83.20
2018-03-17T09:32:34.154Z,83.10
2018-03-17T09:35:02.324Z,84.20
2018-03-17T09:37:32.176Z,82.60
2018-03-17T09:40:00.366Z,82.50
2018-03-17T09:42:28.563Z,84.30
2018-03-17T09:44:56.817Z,84.20
2018-03-17T09:47:26.956Z,83.50
2018-03-17T09:49:55.183Z,84.00
2018-03-17T09:52:23.394Z,83.20
2018-03-17T09:54:51.587Z,83.30
2018-03-17T09:57:21.537Z,81.50
2018-03-17T09:59:49.763Z,81.30
2018-03-17T10:02:18.031Z,82.00
2018-03-17T10:04:46.251Z,83.20
2018-03-17T10:07:25.988Z,82.20
2018-03-17T10:09:54.946Z,81.50
2018-03-17T10:12:23.123Z,81.60
2018-03-17T10:14:51.334Z,83.00
2018-03-17T10:17:19.559Z,81.80
2018-03-17T10:19:47.766Z,80.40
2018-03-17T10:22:16.726Z,80.70
2018-03-17T10:24:44.950Z,80.60
2018-03-17T10:27:13.098Z,80.40
2018-03-17T10:29:41.248Z,80.10
2018-03-17T10:32:09.491Z,80.60
2018-03-17T10:34:37.789Z,80.30
2018-03-17T10:37:11.517Z,79.70
2018-03-17T10:39:39.726Z,78.50
2018-03-17T10:42:07.890Z,80.50
2018-03-17T10:44:36.035Z,79.80
2018-03-17T10:47:14.953Z,78.80
2018-03-17T10:49:43.118Z,79.50
2018-03-17T10:52:11.315Z,79.80
2018-03-17T10:54:39.472Z,80.90
2018-03-17T10:57:47.613Z,78.80
2018-03-17T11:00:22.061Z,77.10
2018-03-17T11:02:53.206Z,77.20
2018-03-17T11:05:21.359Z,78.30
2018-03-17T11:07:57.985Z,77.80
2018-03-17T11:10:26.125Z,77.90
2018-03-17T11:12:54.298Z,76.90
2018-03-17T11:15:22.450Z,76.10
2018-03-17T11:17:52.327Z,76.60
2018-03-17T11:20:20.520Z,76.60
2018-03-17T11:22:49.510Z,75.90
2018-03-17T11:25:18.485Z,76.60
2018-03-17T11:27:47.647Z,76.60
2018-03-17T11:30:15.795Z,76.20
2018-03-17T11:32:44.710Z,74.50
2018-03-17T11:35:13.618Z,74.60
2018-03-17T11:37:41.791Z,74.80
2018-03-17T11:40:09.930Z,74.80
2018-03-17T11:42:38.134Z,75.20
2018-03-17T11:45:06.290Z,74.30
2018-03-17T11:48:01.908Z,74.20
2018-03-17T11:50:30.774Z,73.90
2018-03-17T11:52:59.707Z,73.30
2018-03-17T11:55:27.873Z,73.20
2018-03-17T11:57:58.098Z,73.40
2018-03-17T12:00:27.002Z,72.20
2018-03-17T12:02:55.156Z,72.20
2018-03-17T12:05:23.323Z,73.60
2018-03-17T12:07:58.903Z,73.00
2018-03-17T12:10:27.078Z,72.80
2018-03-17T12:12:55.212Z,74.20
2018-03-17T12:15:23.398Z,74.00
2018-03-17T12:17:52.546Z,74.40
2018-03-17T12:20:21.485Z,73.80
2018-03-17T12:22:50.383Z,73.70
2018-03-17T12:25:18.562Z,73.70
2018-03-17T12:27:47.651Z,75.00
2018-03-17T12:30:15.838Z,73.30
2018-03-17T12:32:43.992Z,74.50
2018-03-17T12:35:12.257Z,76.10
2018-03-17T12:37:40.423Z,75.80
2018-03-17T12:40:08.642Z,75.20
2018-03-17T12:42:36.840Z,75.10
2018-03-17T12:45:05.832Z,76.00
2018-03-17T12:47:35.807Z,74.80
2018-03-17T12:50:03.979Z,74.80
2018-03-17T12:52:32.121Z,75.10
2018-03-17T12:55:00.311Z,75.00
2018-03-17T12:57:36.001Z,74.70
2018-03-17T13:00:04.174Z,74.90
2018-03-17T13:02:32.335Z,74.50
2018-03-17T13:05:00.480Z,73.20
2018-03-17T13:07:30.751Z,72.20
2018-03-17T13:09:58.894Z,72.90
2018-03-17T13:12:27.054Z,72.90
2018-03-17T13:14:55.215Z,72.70
2018-03-17T13:17:23.428Z,71.00
2018-03-17T13:19:51.575Z,71.20
2018-03-17T13:22:19.754Z,68.80
2018-03-17T13:24:47.890Z,69.50
2018-03-17T13:27:40.235Z,69.70
2018-03-17T13:30:09.134Z,71.00
2018-03-17T13:32:55.046Z,70.90
2018-03-17T13:35:23.228Z,70.40
2018-03-17T13:37:53.458Z,69.60
2018-03-17T13:40:46.370Z,69.30
2018-03-17T13:43:14.600Z,70.50
2018-03-17T13:45:42.804Z,69.70
2018-03-17T13:48:11.822Z,71.50
2018-03-17T13:50:40.040Z,71.50
2018-03-17T13:53:08.247Z,72.20
2018-03-17T13:55:37.171Z,72.20
2018-03-17T13:58:05.354Z,72.20
2018-03-17T14:00:33.502Z,71.40
2018-03-17T14:03:01.681Z,71.30
2018-03-17T14:05:29.837Z,70.20
2018-03-17T14:07:58.771Z,71.40
2018-03-17T14:10:26.922Z,71.40
2018-03-17T14:12:55.103Z,71.60
2018-03-17T14:15:23.256Z,73.20
2018-03-17T14:17:52.686Z,72.00
2018-03-17T14:20:20.936Z,71.70
2018-03-17T14:22:49.074Z,72.00
2018-03-17T14:25:17.282Z,73.30
2018-03-17T14:27:50.606Z,72.20
2018-03-17T14:30:18.768Z,72.20
2018-03-17T14:32:46.950Z,73.50
2018-03-17T14:35:15.152Z,73.50
2018-03-17T14:37:47.198Z,72.10
2018-03-17T14:40:15.366Z,72.60
2018-03-17T14:42:43.518Z,73.90
2018-03-17T14:45:11.762Z,74.10
2018-03-17T14:47:40.921Z,74.40
2018-03-17T14:50:09.137Z,74.30
2018-03-17T14:52:38.142Z,73.50
2018-03-17T14:55:06.358Z,73.60
2018-03-17T14:57:38.323Z,74.00
2018-03-17T15:00:06.618Z,74.80
2018-03-17T15:02:34.787Z,73.90
2018-03-17T15:05:03.012Z,74.10
2018-03-17T15:07:36.874Z,74.20
2018-03-17T15:10:05.131Z,73.60
2018-03-17T15:12:33.306Z,73.10
2018-03-17T15:15:01.520Z,73.60
2018-03-17T15:17:35.950Z,75.90
2018-03-17T15:20:04.914Z,76.00
2018-03-17T15:22:33.160Z,75.90
2018-03-17T15:25:01.335Z,75.20
2018-03-17T15:27:29.576Z,74.60
2018-03-17T15:29:57.839Z,74.90
2018-03-17T15:32:26.099Z,75.50
2018-03-17T15:34:55.075Z,74.80
2018-03-17T15:37:23.287Z,74.80
2018-03-17T15:39:51.535Z,75.50
2018-03-17T15:42:19.757Z,75.60
2018-03-17T15:44:47.926Z,75.00
2018-03-17T15:47:16.167Z,76.30
2018-03-17T15:49:45.146Z,75.80
2018-03-17T15:52:13.331Z,75.80
2018-03-17T15:54:42.286Z,76.40
2018-03-17T15:57:21.139Z,76.30
2018-03-17T15:59:49.329Z,76.60
2018-03-17T16:02:17.533Z,75.90
2018-03-17T16:04:45.693Z,76.30
2018-03-17T16:07:25.093Z,76.40
2018-03-17T16:09:53.251Z,76.90
2018-03-17T16:12:21.393Z,76.70
2018-03-17T16:14:49.606Z,77.00
2018-03-17T16:17:19.736Z,76.90
2018-03-17T16:19:49.689Z,77.00
2018-03-17T16:22:17.841Z,76.20
2018-03-17T16:24:46.798Z,76.30
2018-03-17T16:27:29.307Z,76.30
2018-03-17T16:29:57.540Z,76.30
2018-03-17T16:32:25.751Z,76.20
2018-03-17T16:34:53.942Z,77.00
2018-03-17T16:37:22.153Z,76.70
2018-03-17T16:39:50.315Z,77.10
2018-03-17T16:42:19.217Z,77.10
2018-03-17T16:44:47.383Z,76.90
2018-03-17T16:47:24.813Z,77.30
2018-03-17T16:49:52.974Z,77.30
2018-03-17T16:52:21.121Z,78.00
2018-03-17T16:54:50.052Z,77.30
2018-03-17T16:57:19.151Z,77.40
2018-03-17T16:59:47.334Z,76.90
2018-03-17T17:02:15.474Z,77.50
2018-03-17T17:04:43.640Z,77.40
2018-03-17T17:07:14.807Z,77.30
2018-03-17T17:09:42.984Z,77.30
2018-03-17T17:12:11.219Z,78.20
2018-03-17T17:14:39.386Z,77.80
2018-03-17T17:17:07.550Z,77.80
2018-03-17T17:19:36.470Z,78.30
2018-03-17T17:22:04.678Z,77.70
2018-03-17T17:24:33.047Z,78.40
2018-03-17T17:27:02.313Z,78.20
2018-03-17T17:29:30.450Z,78.30
2018-03-17T17:31:58.608Z,78.20
2018-03-17T17:34:26.774Z,78.00
2018-03-17T17:36:56.910Z,78.30
2018-03-17T17:39:25.082Z,78.30
2018-03-17T17:41:53.254Z,78.70
2018-03-17T17:44:21.398Z,79.00
2018-03-17T17:46:49.566Z,78.60
2018-03-17T17:49:18.476Z,78.60
2018-03-17T17:51:46.642Z,79.40
2018-03-17T17:54:14.815Z,78.40
2018-03-17T17:56:44.955Z,78.30
2018-03-17T17:59:13.130Z,78.50
2018-03-17T18:01:41.294Z,78.80
2018-03-17T18:04:09.467Z,79.10
2018-03-17T18:06:42.148Z,79.20
2018-03-17T18:09:10.314Z,78.70
2018-03-17T18:11:38.480Z,78.70
2018-03-17T18:14:06.647Z,78.20
2018-03-17T18:16:36.774Z,78.20
2018-03-17T18:19:04.936Z,78.20
2018-03-17T18:21:33.078Z,78.70
2018-03-17T18:24:01.310Z,78.60
2018-03-17T18:26:29.422Z,78.40
2018-03-17T18:28:58.375Z,79.00
2018-03-17T18:31:26.525Z,78.90
2018-03-17T18:33:54.737Z,78.70
2018-03-17T18:36:22.890Z,79.00
2018-03-17T18:38:51.058Z,78.60
2018-03-17T18:41:19.222Z,78.40
2018-03-17T18:43:47.418Z,79.10
2018-03-17T18:46:15.571Z,78.70
2018-03-17T18:48:43.755Z,78.50
2018-03-17T18:51:11.933Z,78.20
2018-03-17T18:53:40.102Z,78.10
2018-03-17T18:56:09.246Z,78.00
2018-03-17T18:58:38.307Z,78.00
2018-03-17T19:01:06.556Z,78.00
2018-03-17T19:03:34.803Z,78.00
2018-03-17T19:06:03.004Z,77.70
2018-03-17T19:08:31.178Z,77.80
2018-03-17T19:10:59.443Z,77.60
2018-03-17T19:13:27.676Z,77.60
2018-03-17T19:15:58.630Z,76.80
2018-03-17T19:18:26.895Z,76.80
2018-03-17T19:20:55.891Z,77.50
2018-03-17T19:23:24.873Z,77.30
2018-03-17T19:25:58.637Z,76.90
2018-03-17T19:28:26.838Z,76.80
2018-03-17T19:30:55.116Z,77.30
2018-03-17T19:33:23.350Z,77.90
2018-03-17T19:35:52.579Z,77.60
2018-03-17T19:38:20.792Z,75.80
2018-03-17T19:40:49.803Z,76.20
2018-03-17T19:43:18.031Z,76.20
2018-03-17T19:45:58.679Z,76.60
2018-03-17T19:48:26.889Z,76.40
2018-03-17T19:50:55.920Z,76.50
2018-03-17T19:53:24.157Z,76.30
2018-03-17T19:55:57.685Z,77.00
2018-03-17T19:58:25.846Z,77.00
2018-03-17T20:00:54.027Z,75.90
2018-03-17T20:03:22.257Z,76.10
2018-03-17T20:06:08.113Z,77.10
2018-03-17T20:08:36.311Z,76.40
2018-03-17T20:11:04.483Z,76.30
2018-03-17T20:13:32.659Z,76.40
2018-03-17T20:16:02.768Z,76.40
2018-03-17T20:18:31.029Z,77.40
2018-03-17T20:21:00.019Z,76.90
2018-03-17T20:23:28.235Z,76.90
2018-03-17T20:25:56.452Z,76.80
2018-03-17T20:28:28.045Z,76.10
2018-03-17T20:30:56.487Z,76.30
2018-03-17T20:33:24.743Z,76.20
2018-03-17T20:36:01.910Z,77.10
2018-03-17T20:38:30.179Z,77.10
2018-03-17T20:40:58.403Z,77.90
2018-03-17T20:43:26.603Z,77.90
2018-03-17T20:46:00.923Z,77.60
2018-03-17T20:48:29.102Z,77.90
2018-03-17T20:50:57.259Z,77.20
2018-03-17T20:53:25.447Z,77.10
2018-03-17T20:56:07.716Z,77.00
2018-03-17T20:58:35.890Z,77.10
2018-03-17T21:01:04.058Z,76.90
2018-03-17T21:03:32.284Z,77.00
2018-03-17T21:06:00.514Z,76.80
2018-03-17T21:08:28.759Z,76.10
2018-03-17T21:10:57.793Z,77.40
2018-03-17T21:13:26.059Z,77.40
2018-03-17T21:16:01.521Z,77.10
2018-03-17T21:18:29.716Z,77.50
2018-03-17T21:20:57.986Z,78.20
2018-03-17T21:23:26.259Z,78.10
2018-03-17T21:25:55.446Z,78.30
2018-03-17T21:28:23.728Z,78.40
2018-03-17T21:30:51.942Z,77.50
2018-03-17T21:33:20.891Z,77.90
2018-03-17T21:35:56.450Z,77.90
2018-03-17T21:38:24.672Z,77.00
2018-03-17T21:40:52.960Z,76.60
2018-03-17T21:43:21.143Z,76.30
2018-03-17T21:45:51.379Z,76.40
2018-03-17T21:48:19.571Z,75.70
2018-03-17T21:50:47.807Z,76.10
2018-03-17T21:53:15.982Z,75.50
2018-03-17T21:55:51.208Z,75.40
2018-03-17T21:58:19.446Z,75.40
2018-03-17T22:00:47.657Z,76.00
2018-03-17T22:03:16.684Z,74.80
2018-03-17T22:05:53.191Z,75.60
2018-03-17T22:08:21.447Z,74.70
2018-03-17T22:10:49.644Z,75.30
2018-03-17T22:13:18.643Z,76.20
2018-03-17T22:15:52.996Z,76.00
2018-03-17T22:18:21.292Z,76.00
2018-03-17T22:20:49.543Z,76.30
2018-03-17T22:23:17.809Z,76.10
2018-03-17T22:25:46.912Z,76.10
2018-03-17T22:28:15.213Z,76.90
2018-03-17T22:30:43.428Z,76.00
2018-03-17T22:33:12.400Z,76.40
2018-03-17T22:35:40.659Z,76.40
2018-03-17T22:38:08.954Z,76.20
2018-03-17T22:40:38.055Z,76.20
2018-03-17T22:43:06.326Z,77.10
2018-03-17T22:45:34.506Z,76.50
2018-03-17T22:48:03.503Z,77.30
2018-03-17T22:50:31.683Z,77.30
2018-03-17T22:52:59.888Z,76.00
2018-03-17T22:55:28.135Z,77.60
2018-03-17T22:57:57.124Z,77.60
2018-03-17T23:00:26.130Z,78.00
2018-03-17T23:02:55.075Z,77.90
2018-03-17T23:05:23.291Z,77.80
2018-03-17T23:07:59.831Z,80.50
2018-03-17T23:10:28.055Z,80.40
2018-03-17T23:12:56.277Z,82.80
2018-03-17T23:15:24.494Z,81.50
2018-03-17T23:18:14.755Z,83.00
2018-03-17T23:20:43.003Z,83.00
2018-03-17T23:23:11.233Z,81.90
2018-03-17T23:25:40.271Z,83.90
2018-03-17T23:28:08.496Z,83.90
2018-03-17T23:30:38.250Z,85.20
2018-03-17T23:33:06.455Z,85.20
2018-03-17T23:35:34.675Z,85.40
2018-03-17T23:38:02.854Z,85.70
2018-03-17T23:40:31.099Z,86.50
2018-03-17T23:43:00.066Z,85.70
2018-03-17T23:45:28.291Z,85.70
2018-03-17T23:48:10.323Z,86.30
2018-03-17T23:50:38.590Z,87.50
2018-03-17T23:53:06.798Z,88.30
2018-03-17T23:55:35.081Z,88.90
2018-03-17T23:58:03.355Z,88.60
